createdAt,value
2019-03-05T00:02:24.734Z,4.97
2019-03-05T00:04:57.983Z,4.93
2019-03-05T00:07:30.877Z,4.96
2019-03-05T00:10:04.210Z,5.08
2019-03-05T00:12:37.152Z,5.07
2019-03-05T00:15:11.925Z,5.09
2019-03-05T00:17:44.991Z,5.15
2019-03-05T00:20:17.847Z,5.24
2019-03-05T00:22:50.787Z,5.21
2019-03-05T00:25:23.772Z,5.16
2019-03-05T00:28:10.601Z,5.15
2019-03-05T00:30:54.926Z,5.28
2019-03-05T00:34:07.576Z,5.21
2019-03-05T00:37:02.130Z,5.28
2019-03-05T00:40:11.440Z,5.33
2019-03-05T00:43:13.762Z,5.32
2019-03-05T00:46:45.145Z,5.42
2019-03-05T00:49:42.135Z,5.44
2019-03-05T00:52:42.185Z,5.51
2019-03-05T00:56:27.888Z,5.55
2019-03-05T00:59:52.724Z,5.54
2019-03-05T01:03:02.977Z,5.54
2019-03-05T01:06:18.453Z,5.51
2019-03-05T01:08:51.109Z,5.39
2019-03-05T01:11:24.461Z,5.40
2019-03-05T01:14:01.476Z,5.38
2019-03-05T01:16:34.780Z,5.43
2019-03-05T01:19:07.732Z,5.45
2019-03-05T01:21:40.607Z,5.57
2019-03-05T01:24:13.567Z,5.55
2019-03-05T01:26:47.493Z,5.61
2019-03-05T01:29:20.422Z,5.61
2019-03-05T01:32:10.713Z,5.69
2019-03-05T01:35:05.620Z,5.70
2019-03-05T01:37:38.551Z,5.46
2019-03-05T01:40:17.542Z,5.29
2019-03-05T01:42:50.381Z,5.21
2019-03-05T01:45:23.194Z,5.08
2019-03-05T01:47:56.133Z,4.96
2019-03-05T01:50:28.910Z,4.74
2019-03-05T01:53:01.810Z,4.65
2019-03-05T01:55:34.608Z,4.55
2019-03-05T01:58:07.540Z,4.37
2019-03-05T02:00:40.856Z,4.33
2019-03-05T02:03:13.710Z,4.22
2019-03-05T02:05:46.725Z,4.10
2019-03-05T02:08:19.622Z,4.01
2019-03-05T02:10:52.450Z,3.92
2019-03-05T02:13:25.382Z,3.92
2019-03-05T02:15:58.246Z,3.96
2019-03-05T02:18:31.234Z,3.94
2019-03-05T02:21:04.096Z,3.95
2019-03-05T02:23:56.795Z,3.96
2019-03-05T02:27:52.031Z,4.02
2019-03-05T02:31:15.284Z,4.01
2019-03-05T02:34:20.494Z,4.00
2019-03-05T02:37:42.209Z,4.15
2019-03-05T02:41:06.707Z,4.16
2019-03-05T02:44:24.070Z,4.54
2019-03-05T02:47:46.049Z,4.89
2019-03-05T02:51:24.234Z,4.91
2019-03-05T02:54:57.931Z,4.93
2019-03-05T02:57:28.042Z,5.01
2019-03-05T03:00:01.110Z,5.11
2019-03-05T03:02:51.621Z,5.17
2019-03-05T03:05:52.453Z,5.19
2019-03-05T03:08:25.401Z,5.14
2019-03-05T03:10:58.214Z,5.15
2019-03-05T03:13:31.215Z,5.09
2019-03-05T03:16:04.112Z,5.06
2019-03-05T03:18:37.000Z,5.09
2019-03-05T03:21:09.919Z,5.11
2019-03-05T03:23:43.062Z,5.14
2019-03-05T03:26:15.958Z,5.08
2019-03-05T03:28:48.825Z,5.09
2019-03-05T03:31:21.721Z,4.99
2019-03-05T03:33:54.750Z,5.03
2019-03-05T03:36:27.685Z,5.06
2019-03-05T03:39:00.529Z,5.05
2019-03-05T03:41:33.622Z,5.04
2019-03-05T03:44:06.609Z,5.04
2019-03-05T03:46:39.511Z,5.05
2019-03-05T03:49:12.449Z,5.09
2019-03-05T03:51:45.319Z,5.10
2019-03-05T03:54:18.277Z,5.13
2019-03-05T03:56:51.294Z,5.15
2019-03-05T03:59:24.167Z,5.16
2019-03-05T04:01:57.161Z,5.16
2019-03-05T04:04:30.067Z,5.16
2019-03-05T04:07:03.085Z,5.17
2019-03-05T04:09:36.020Z,5.08
2019-03-05T04:12:08.949Z,5.01
2019-03-05T04:14:41.840Z,5.02
2019-03-05T04:17:14.724Z,4.94
2019-03-05T04:19:47.668Z,4.90
2019-03-05T04:22:20.715Z,4.83
2019-03-05T04:24:53.518Z,4.92
2019-03-05T04:27:26.386Z,4.76
2019-03-05T04:29:59.199Z,4.69
2019-03-05T04:32:32.048Z,4.64
2019-03-05T04:35:05.329Z,4.60
2019-03-05T04:37:39.606Z,4.57
2019-03-05T04:40:13.788Z,4.57
2019-03-05T04:42:46.824Z,4.85
2019-03-05T04:45:49.313Z,5.04
2019-03-05T04:48:22.273Z,5.14
2019-03-05T04:50:58.638Z,5.14
2019-03-05T04:53:31.578Z,5.02
2019-03-05T04:56:04.474Z,4.93
2019-03-05T04:58:37.323Z,4.81
2019-03-05T05:01:10.254Z,4.59
2019-03-05T05:03:43.113Z,4.62
2019-03-05T05:06:16.049Z,4.58
2019-03-05T05:08:48.960Z,4.63
2019-03-05T05:11:21.938Z,4.61
2019-03-05T05:13:54.937Z,4.73
2019-03-05T05:16:27.780Z,4.61
2019-03-05T05:19:00.682Z,4.34
2019-03-05T05:21:33.615Z,4.24
2019-03-05T05:24:06.859Z,4.18
2019-03-05T05:26:39.730Z,4.25
2019-03-05T05:29:12.699Z,4.46
2019-03-05T05:31:45.605Z,4.52
2019-03-05T05:34:18.531Z,4.68
2019-03-05T05:36:51.415Z,4.80
2019-03-05T05:40:17.920Z,4.81
2019-03-05T05:42:50.906Z,4.88
2019-03-05T05:45:26.771Z,4.85
2019-03-05T05:47:59.709Z,4.80
2019-03-05T05:50:32.570Z,4.83
2019-03-05T05:53:05.449Z,4.81
2019-03-05T05:55:38.331Z,4.81
2019-03-05T05:58:11.534Z,4.79
2019-03-05T06:00:47.171Z,4.74
2019-03-05T06:03:20.151Z,4.70
2019-03-05T06:05:53.042Z,4.66
2019-03-05T06:08:28.606Z,4.71
2019-03-05T06:11:01.550Z,4.79
2019-03-05T06:13:34.486Z,4.84
2019-03-05T06:16:07.422Z,4.81
2019-03-05T06:18:40.344Z,4.78
2019-03-05T06:21:13.367Z,4.74
2019-03-05T06:23:46.430Z,4.74
2019-03-05T06:26:19.466Z,4.70
2019-03-05T06:28:52.406Z,4.57
2019-03-05T06:31:25.320Z,4.48
2019-03-05T06:33:58.192Z,4.51
2019-03-05T06:36:57.037Z,4.47
2019-03-05T06:39:30.051Z,4.48
2019-03-05T06:42:02.931Z,4.49
2019-03-05T06:44:35.379Z,4.53
2019-03-05T06:47:08.407Z,4.52
2019-03-05T06:49:41.434Z,4.53
2019-03-05T06:52:14.624Z,4.51
2019-03-05T06:54:47.504Z,4.55
2019-03-05T06:57:20.477Z,4.70
2019-03-05T06:59:53.503Z,4.71
2019-03-05T07:02:26.391Z,4.65
2019-03-05T07:05:00.579Z,4.60
2019-03-05T07:07:34.022Z,4.59
2019-03-05T07:10:53.635Z,4.58
2019-03-05T07:13:26.531Z,4.85
2019-03-05T07:16:15.132Z,5.17
2019-03-05T07:19:02.386Z,5.35
2019-03-05T07:22:24.589Z,5.45
2019-03-05T07:24:57.581Z,5.63
2019-03-05T07:27:49.112Z,5.80
2019-03-05T07:30:24.030Z,5.79
2019-03-05T07:32:58.849Z,5.58
2019-03-05T07:35:34.261Z,5.80
2019-03-05T07:38:07.503Z,5.90
2019-03-05T07:40:40.399Z,6.00
2019-03-05T07:43:13.258Z,5.98
2019-03-05T07:45:46.199Z,5.87
2019-03-05T07:48:19.126Z,6.09
2019-03-05T07:50:52.025Z,6.30
2019-03-05T07:53:24.839Z,6.21
2019-03-05T07:55:57.751Z,6.36
2019-03-05T07:58:30.810Z,6.45
2019-03-05T08:01:04.703Z,6.56
2019-03-05T08:03:37.688Z,6.61
2019-03-05T08:06:10.744Z,6.98
2019-03-05T08:09:32.500Z,8.08
2019-03-05T08:13:01.870Z,8.57
2019-03-05T08:16:19.737Z,8.12
2019-03-05T08:18:52.709Z,8.44
2019-03-05T08:21:25.717Z,8.92
2019-03-05T08:23:58.758Z,8.93
2019-03-05T08:26:32.017Z,9.96
2019-03-05T08:29:05.134Z,10.57
2019-03-05T08:31:38.079Z,9.99
2019-03-05T08:34:11.173Z,9.71
2019-03-05T08:36:44.148Z,8.73
2019-03-05T08:39:17.779Z,10.01
2019-03-05T08:41:50.846Z,11.56
2019-03-05T08:44:23.518Z,12.17
2019-03-05T08:46:56.577Z,10.89
2019-03-05T08:49:29.650Z,11.45
2019-03-05T08:52:02.614Z,10.55
2019-03-05T08:54:35.576Z,9.51
2019-03-05T08:57:08.533Z,8.59
2019-03-05T08:59:41.613Z,8.22
2019-03-05T09:02:13.851Z,9.14
2019-03-05T09:04:46.775Z,9.97
2019-03-05T09:07:20.062Z,10.36
2019-03-05T09:09:53.157Z,10.48
2019-03-05T09:12:26.260Z,10.18
2019-03-05T09:14:59.248Z,10.38
2019-03-05T09:17:32.233Z,9.88
2019-03-05T09:20:06.306Z,9.43
2019-03-05T09:22:39.259Z,9.39
2019-03-05T09:25:14.611Z,9.63
2019-03-05T09:27:47.639Z,9.66
2019-03-05T09:30:21.178Z,9.62
2019-03-05T09:32:54.279Z,9.69
2019-03-05T09:35:27.303Z,10.67
2019-03-05T09:38:00.337Z,10.47
2019-03-05T09:40:33.340Z,10.50
2019-03-05T09:43:06.227Z,10.85
2019-03-05T09:45:39.216Z,10.43
2019-03-05T09:48:12.349Z,10.36
2019-03-05T09:50:45.273Z,10.60
2019-03-05T09:53:18.185Z,12.50
2019-03-05T09:55:51.890Z,13.13
2019-03-05T09:58:24.804Z,13.54
2019-03-05T10:00:57.800Z,13.77
2019-03-05T10:03:30.938Z,14.26
2019-03-05T10:06:04.309Z,13.68
2019-03-05T10:08:37.279Z,12.92
2019-03-05T10:11:09.684Z,12.70
2019-03-05T10:13:42.699Z,11.24
2019-03-05T10:16:15.765Z,10.81
2019-03-05T10:18:48.779Z,10.80
2019-03-05T10:21:21.776Z,10.68
2019-03-05T10:23:54.685Z,11.39
2019-03-05T10:26:27.722Z,12.51
2019-03-05T10:29:00.742Z,12.89
2019-03-05T10:31:33.723Z,11.23
2019-03-05T10:34:06.742Z,10.97
2019-03-05T10:36:39.779Z,11.01
2019-03-05T10:39:30.862Z,10.97
2019-03-05T10:42:03.772Z,10.90
2019-03-05T10:44:36.728Z,10.41
2019-03-05T10:47:10.107Z,10.24
2019-03-05T10:49:43.083Z,10.26
2019-03-05T10:52:16.813Z,9.51
2019-03-05T10:54:49.976Z,9.49
2019-03-05T10:57:22.894Z,9.52
2019-03-05T10:59:55.779Z,9.69
2019-03-05T11:02:29.030Z,9.99
2019-03-05T11:05:02.524Z,10.88
2019-03-05T11:07:35.526Z,11.07
2019-03-05T11:10:11.167Z,11.39
2019-03-05T11:12:44.256Z,11.16
2019-03-05T11:15:24.234Z,11.35
2019-03-05T11:17:57.614Z,10.49
2019-03-05T11:20:30.621Z,10.27
2019-03-05T11:23:03.553Z,10.17
2019-03-05T11:25:36.722Z,10.85
2019-03-05T11:28:09.760Z,10.89
2019-03-05T11:30:42.737Z,10.42
2019-03-05T11:33:16.247Z,10.70
2019-03-05T11:35:49.422Z,10.37
2019-03-05T11:38:23.080Z,10.12
2019-03-05T11:40:56.079Z,10.01
2019-03-05T11:43:29.102Z,10.01
2019-03-05T11:46:02.119Z,9.78
2019-03-05T11:48:35.106Z,9.66
2019-03-05T11:51:08.141Z,9.81
2019-03-05T11:53:41.128Z,10.07
2019-03-05T11:56:14.404Z,10.46
2019-03-05T11:58:47.329Z,11.07
2019-03-05T12:01:45.019Z,10.78
2019-03-05T12:04:18.080Z,11.49
2019-03-05T12:06:51.047Z,13.73
2019-03-05T12:09:24.182Z,14.35
2019-03-05T12:11:57.407Z,13.87
2019-03-05T12:14:30.421Z,13.34
2019-03-05T12:17:03.468Z,12.44
2019-03-05T12:19:36.594Z,12.71
2019-03-05T12:22:09.711Z,13.43
2019-03-05T12:24:42.683Z,12.26
2019-03-05T12:27:15.754Z,12.07
2019-03-05T12:29:48.861Z,13.20
2019-03-05T12:32:21.791Z,13.31
2019-03-05T12:34:54.836Z,13.09
2019-03-05T12:37:27.904Z,12.85
2019-03-05T12:40:00.956Z,11.88
2019-03-05T12:42:33.928Z,11.44
2019-03-05T12:45:08.127Z,11.21
2019-03-05T12:47:41.095Z,11.40
2019-03-05T12:50:17.904Z,12.27
2019-03-05T12:52:51.608Z,11.07
2019-03-05T12:55:26.020Z,10.94
2019-03-05T12:57:59.033Z,10.95
2019-03-05T13:00:32.953Z,11.28
2019-03-05T13:03:06.117Z,11.41
2019-03-05T13:05:39.115Z,11.40
2019-03-05T13:08:12.228Z,11.23
2019-03-05T13:10:45.396Z,11.75
2019-03-05T13:13:18.300Z,12.02
2019-03-05T13:15:52.925Z,12.67
2019-03-05T13:18:26.913Z,13.38
2019-03-05T13:21:03.576Z,14.63
2019-03-05T13:23:35.328Z,12.82
2019-03-05T13:26:09.243Z,11.79
2019-03-05T13:28:42.589Z,12.24
2019-03-05T13:31:15.615Z,13.36
2019-03-05T13:33:48.613Z,13.31
2019-03-05T13:36:21.790Z,12.45
2019-03-05T13:38:54.824Z,11.84
2019-03-05T13:41:27.961Z,13.06
2019-03-05T13:44:00.952Z,12.49
2019-03-05T13:46:34.047Z,12.42
2019-03-05T13:49:57.528Z,11.68
2019-03-05T13:53:36.003Z,12.07
2019-03-05T13:56:54.718Z,11.42
2019-03-05T13:59:47.972Z,11.38
2019-03-05T14:02:31.308Z,11.28
2019-03-05T14:05:43.948Z,11.30
2019-03-05T14:08:56.257Z,11.08
2019-03-05T14:11:29.197Z,11.29
2019-03-05T14:14:02.206Z,11.61
2019-03-05T14:16:35.318Z,11.28
2019-03-05T14:19:08.315Z,11.03
2019-03-05T14:21:41.300Z,11.14
2019-03-05T14:24:14.530Z,11.10
2019-03-05T14:26:49.525Z,11.40
2019-03-05T14:29:22.606Z,11.51
2019-03-05T14:31:55.699Z,11.79
2019-03-05T14:34:28.732Z,12.55
2019-03-05T14:37:01.850Z,11.66
2019-03-05T14:39:36.275Z,11.43
2019-03-05T14:42:10.610Z,11.31
2019-03-05T14:44:44.225Z,11.46
2019-03-05T14:47:17.310Z,12.31
2019-03-05T14:49:50.683Z,11.84
2019-03-05T14:52:23.650Z,11.73
2019-03-05T14:54:57.104Z,11.21
2019-03-05T14:57:30.053Z,10.91
2019-03-05T15:00:03.221Z,10.92
2019-03-05T15:02:36.790Z,10.76
2019-03-05T15:05:10.768Z,10.85
2019-03-05T15:07:43.888Z,10.64
2019-03-05T15:10:16.909Z,10.53
2019-03-05T15:12:50.896Z,10.38
2019-03-05T15:15:29.850Z,10.46
2019-03-05T15:18:02.802Z,10.34
2019-03-05T15:20:35.732Z,10.49
2019-03-05T15:23:08.776Z,10.56
2019-03-05T15:25:41.784Z,10.40
2019-03-05T15:28:14.731Z,10.19
2019-03-05T15:30:47.789Z,10.10
2019-03-05T15:33:20.828Z,10.10
2019-03-05T15:35:53.800Z,10.05
2019-03-05T15:38:26.732Z,10.10
2019-03-05T15:40:59.733Z,10.11
2019-03-05T15:43:32.765Z,9.98
2019-03-05T15:46:05.956Z,10.02
2019-03-05T15:48:39.099Z,9.99
2019-03-05T15:51:12.143Z,10.06
2019-03-05T15:56:19.189Z,9.92
2019-03-05T15:58:52.212Z,9.87
2019-03-05T16:01:25.403Z,9.89
2019-03-05T16:03:58.855Z,9.96
2019-03-05T16:06:34.129Z,10.08
2019-03-05T16:09:16.886Z,10.06
2019-03-05T16:11:49.803Z,9.88
2019-03-05T16:14:22.750Z,9.74
2019-03-05T16:16:55.722Z,9.71
2019-03-05T16:19:29.103Z,9.89
2019-03-05T16:22:02.194Z,9.86
2019-03-05T16:24:37.467Z,9.86
2019-03-05T16:27:09.996Z,9.87
2019-03-05T16:29:43.079Z,9.82
2019-03-05T16:32:27.049Z,9.81
2019-03-05T16:35:18.432Z,9.80
2019-03-05T16:37:57.745Z,9.77
2019-03-05T16:41:02.424Z,9.67
2019-03-05T16:43:54.136Z,9.65
2019-03-05T16:46:48.963Z,9.62
2019-03-05T16:49:49.802Z,9.56
2019-03-05T16:52:47.698Z,9.58
2019-03-05T16:55:51.463Z,9.52
2019-03-05T16:58:49.023Z,9.56
2019-03-05T17:01:30.026Z,9.51
2019-03-05T17:04:25.805Z,9.48
2019-03-05T17:07:15.119Z,9.36
2019-03-05T17:09:56.027Z,9.26
2019-03-05T17:12:31.509Z,9.19
2019-03-05T17:15:04.745Z,9.13
2019-03-05T17:17:37.737Z,9.07
2019-03-05T17:20:12.241Z,9.08
2019-03-05T17:22:45.460Z,9.10
2019-03-05T17:25:18.892Z,8.90
2019-03-05T17:27:53.106Z,8.72
2019-03-05T17:30:26.093Z,8.55
2019-03-05T17:32:58.996Z,8.17
2019-03-05T17:35:31.842Z,8.03
2019-03-05T17:38:04.899Z,8.19
2019-03-05T17:40:37.876Z,8.12
2019-03-05T17:43:10.671Z,8.01
2019-03-05T17:45:43.828Z,8.02
2019-03-05T17:48:16.639Z,7.76
2019-03-05T17:50:49.489Z,7.36
2019-03-05T17:53:22.307Z,7.01
2019-03-05T17:55:55.186Z,6.71
2019-03-05T17:58:28.007Z,6.62
2019-03-05T18:01:00.881Z,6.51
2019-03-05T18:03:33.738Z,6.38
2019-03-05T18:06:06.824Z,6.41
2019-03-05T18:08:38.882Z,6.49
2019-03-05T18:11:11.773Z,6.50
2019-03-05T18:13:44.759Z,6.63
2019-03-05T18:16:17.730Z,6.50
2019-03-05T18:18:50.577Z,6.51
2019-03-05T18:21:23.455Z,6.25
2019-03-05T18:23:56.343Z,6.14
2019-03-05T18:26:29.212Z,6.09
2019-03-05T18:29:02.154Z,5.99
2019-03-05T18:31:35.173Z,6.15
2019-03-05T18:34:08.614Z,6.20
2019-03-05T18:36:41.553Z,6.62
2019-03-05T18:39:15.286Z,6.52
2019-03-05T18:41:48.221Z,6.42
2019-03-05T18:44:21.286Z,6.66
2019-03-05T18:46:54.204Z,6.49
2019-03-05T18:49:27.085Z,6.26
2019-03-05T18:52:00.128Z,6.22
2019-03-05T18:54:33.222Z,6.05
2019-03-05T18:57:06.137Z,5.83
2019-03-05T18:59:39.120Z,5.69
2019-03-05T19:02:12.171Z,5.80
2019-03-05T19:04:45.014Z,5.68
2019-03-05T19:07:17.882Z,5.62
2019-03-05T19:09:51.014Z,5.56
2019-03-05T19:12:23.865Z,5.60
2019-03-05T19:14:56.810Z,5.55
2019-03-05T19:17:29.796Z,5.46
2019-03-05T19:20:02.902Z,5.53
2019-03-05T19:22:35.139Z,5.66
2019-03-05T19:25:11.078Z,5.75
2019-03-05T19:27:43.894Z,5.98
2019-03-05T19:30:21.086Z,6.01
2019-03-05T19:32:53.899Z,6.03
2019-03-05T19:35:26.761Z,6.12
2019-03-05T19:37:59.634Z,6.14
2019-03-05T19:40:35.017Z,6.08
2019-03-05T19:43:07.873Z,5.89
2019-03-05T19:45:40.814Z,5.73
2019-03-05T19:48:13.418Z,5.62
2019-03-05T19:50:46.980Z,5.49
2019-03-05T19:53:19.796Z,5.36
2019-03-05T19:55:52.746Z,5.31
2019-03-05T19:58:25.782Z,5.27
2019-03-05T20:01:05.260Z,5.32
2019-03-05T20:03:38.194Z,5.46
2019-03-05T20:06:11.681Z,5.62
2019-03-05T20:08:44.616Z,5.47
2019-03-05T20:11:17.776Z,5.41
2019-03-05T20:13:50.769Z,5.43
2019-03-05T20:16:24.040Z,5.29
2019-03-05T20:18:57.236Z,5.30
2019-03-05T20:21:30.682Z,5.27
2019-03-05T20:24:03.631Z,5.15
2019-03-05T20:26:36.650Z,5.10
2019-03-05T20:29:09.551Z,5.20
2019-03-05T20:31:42.469Z,5.21
2019-03-05T20:34:14.554Z,4.98
2019-03-05T20:36:47.474Z,4.76
2019-03-05T20:39:20.630Z,4.66
2019-03-05T20:41:53.689Z,4.60
2019-03-05T20:44:26.638Z,4.50
2019-03-05T20:46:59.678Z,4.54
2019-03-05T20:49:35.333Z,4.50
2019-03-05T20:52:08.259Z,4.48
2019-03-05T20:54:41.300Z,4.66
2019-03-05T20:57:14.182Z,4.59
2019-03-05T20:59:47.130Z,4.08
2019-03-05T21:02:20.549Z,3.89
2019-03-05T21:04:53.556Z,3.72
2019-03-05T21:07:26.392Z,3.58
2019-03-05T21:09:59.356Z,3.55
2019-03-05T21:12:32.467Z,3.76
2019-03-05T21:15:05.853Z,3.59
2019-03-05T21:17:38.831Z,3.46
2019-03-05T21:20:13.230Z,3.36
2019-03-05T21:22:46.220Z,3.24
2019-03-05T21:25:18.632Z,3.33
2019-03-05T21:27:51.744Z,3.31
2019-03-05T21:30:24.742Z,3.37
2019-03-05T21:32:57.747Z,3.40
2019-03-05T21:35:30.580Z,3.20
2019-03-05T21:38:03.671Z,2.99
2019-03-05T21:40:36.923Z,2.76
2019-03-05T21:43:09.804Z,2.60
2019-03-05T21:45:42.849Z,2.55
2019-03-05T21:48:16.067Z,2.67
2019-03-05T21:50:48.991Z,2.72
2019-03-05T21:53:21.889Z,2.77
2019-03-05T21:55:54.848Z,2.90
2019-03-05T21:58:27.813Z,2.95
2019-03-05T22:01:00.758Z,3.06
2019-03-05T22:03:33.647Z,2.88
2019-03-05T22:06:06.771Z,3.01
2019-03-05T22:08:39.903Z,3.04
2019-03-05T22:11:12.903Z,2.93
2019-03-05T22:13:45.853Z,2.72
2019-03-05T22:16:18.903Z,2.77
2019-03-05T22:18:51.923Z,2.83
2019-03-05T22:21:24.958Z,3.05
2019-03-05T22:23:59.784Z,3.08
2019-03-05T22:26:32.787Z,2.76
2019-03-05T22:29:05.703Z,2.62
2019-03-05T22:31:38.537Z,2.37
2019-03-05T22:34:11.451Z,2.23
2019-03-05T22:36:44.412Z,2.11
2019-03-05T22:39:17.704Z,2.07
2019-03-05T22:41:50.585Z,2.08
2019-03-05T22:44:23.549Z,2.07
2019-03-05T22:46:59.306Z,2.00
2019-03-05T22:49:32.272Z,1.67
2019-03-05T22:52:06.043Z,1.40
2019-03-05T22:54:39.649Z,1.35
2019-03-05T22:57:12.590Z,1.31
2019-03-05T22:59:45.423Z,1.28
2019-03-05T23:02:18.507Z,1.33
2019-03-05T23:04:51.454Z,1.47
2019-03-05T23:07:24.344Z,1.67
2019-03-05T23:09:57.481Z,1.61
2019-03-05T23:12:30.311Z,1.56
2019-03-05T23:15:04.760Z,1.47
2019-03-05T23:17:37.645Z,1.12
2019-03-05T23:20:11.693Z,0.98
2019-03-05T23:22:44.839Z,1.34
2019-03-05T23:25:19.620Z,1.36
2019-03-05T23:27:52.561Z,1.16
2019-03-05T23:30:25.548Z,1.37
2019-03-05T23:32:58.704Z,1.53
2019-03-05T23:35:32.021Z,1.47
2019-03-05T23:38:04.975Z,1.53
2019-03-05T23:40:38.013Z,1.49
2019-03-05T23:43:11.140Z,1.26
2019-03-05T23:45:44.123Z,1.26
2019-03-05T23:48:16.997Z,1.07
2019-03-05T23:50:49.981Z,0.88
2019-03-05T23:53:22.879Z,0.82
2019-03-05T23:55:56.247Z,0.86
2019-03-05T23:58:29.104Z,0.93
